This is the latest recevied weather packets stored in our database for station/object DL1AIE-13. If no packets are shown the sender has not sent any weather packets the latest 10 day(s).
| Time | Temp. | Humidity | Pressure | Rain* | Wind** | Luminosity | Snow |
|---|---|---|---|---|---|---|---|
| 1777865247 | 10° C | 88% | 1014.3 hPa | 0 mm | - | - | - |
| 1777864644 | 10.56° C | 84% | 1014.5 hPa | 0 mm | - | - | - |
| 1777864041 | 10.56° C | 85% | 1014.3 hPa | 0 mm | - | - | - |
| 1777863437 | 10.56° C | 87% | 1014.4 hPa | 0 mm | - | - | - |
| 1777862856 | 10.56° C | 85% | 1014.4 hPa | 0 mm | - | - | - |
| 1777862250 | 11.11° C | 82% | 1014.3 hPa | 0 mm | - | - | - |
| 1777861649 | 11.67° C | 81% | 1014.3 hPa | 0 mm | - | - | - |
| 1777861042 | 12.22° C | 78% | 1014.4 hPa | 0 mm | - | - | - |
| 1777860438 | 11.67° C | 79% | 1014.4 hPa | 0 mm | - | - | - |
| 1777859855 | 12.22° C | 77% | 1014.3 hPa | 0 mm | - | - | - |
| 1777859251 | 12.78° C | 74% | 1014.1 hPa | 0 mm | - | - | - |
| 1777858648 | 12.78° C | 76% | 1014.2 hPa | 0 mm | - | - | - |
| 1777858045 | 13.33° C | 76% | 1014.2 hPa | 0 mm | - | - | - |
| 1777857440 | 13.33° C | 76% | 1014.2 hPa | 0 mm | - | - | - |
| 1777856837 | 13.33° C | 75% | 1014.3 hPa | 0 mm | - | - | - |
| 1777856254 | 13.89° C | 72% | 1014.4 hPa | 0 mm | - | - | - |
| 1777855650 | 13.89° C | 73% | 1014.4 hPa | 0 mm | - | - | - |
| 1777855047 | 13.89° C | 72% | 1014.3 hPa | 0 mm | - | - | - |
| 1777854443 | 13.89° C | 71% | 1014.2 hPa | 0 mm | - | - | - |
| 1777853839 | 13.89° C | 73% | 1014.4 hPa | 0 mm | - | - | - |
| 1777853256 | 14.44° C | 69% | 1014.3 hPa | 0 mm | - | - | - |
| 1777852651 | 14.44° C | 68% | 1014.3 hPa | 0 mm | - | - | - |
| 1777852047 | 15° C | 65% | 1014.3 hPa | 0 mm | - | - | - |
| 1777851443 | 14.44° C | 70% | 1014.5 hPa | 0 mm | - | - | - |
| 1777850840 | 15° C | 68% | 1014.4 hPa | 0 mm | - | - | - |
* Rain latest hour (hover to see other rain measurements)
** Current wind speed in m/s (hover to see current wind gust speed)